Terminal Aerodrome Forecast
Issued by NWS Caribou, ME

Home | Current Version | Previous Version | Text Only | Print | Product List | Glossary On
Versions: 1 2 3 4 5 6 7 8 9 10 11 12 13 14
413
FTUS41 KCAR 221729
TAFBGR
TAF
KBGR 221729Z 2218/2318 00000KT 3SM -RA BKN010 OVC060
     FM221900 VRB03KT 3SM -RA BKN007 OVC015
      TEMPO 2220/2223 2SM -RA OVC003
     FM230200 32011KT P6SM BKN015
     FM230300 32011KT P6SM SCT045=

USA.gov is the U.S. government's official web portal to all federal, state and local government web resources and services.